createdAt,value
2023-03-22T00:01:53.629Z,10.07
2023-03-22T00:04:38.843Z,10.05
2023-03-22T00:07:23.771Z,10.05
2023-03-22T00:10:09.500Z,10.00
2023-03-22T00:12:55.591Z,10.06
2023-03-22T00:15:44.718Z,10.00
2023-03-22T00:18:30.715Z,10.03
2023-03-22T00:21:16.960Z,10.05
2023-03-22T00:24:01.836Z,10.03
2023-03-22T00:26:47.529Z,10.01
2023-03-22T00:29:32.452Z,10.04
2023-03-22T00:32:17.826Z,10.01
2023-03-22T00:35:04.338Z,10.07
2023-03-22T00:37:50.825Z,10.09
2023-03-22T00:40:36.095Z,10.11
2023-03-22T00:43:21.258Z,10.13
2023-03-22T00:46:06.756Z,10.13
2023-03-22T00:48:51.727Z,10.16
2023-03-22T00:51:36.765Z,10.18
2023-03-22T00:54:22.045Z,10.08
2023-03-22T00:57:07.832Z,10.19
2023-03-22T00:59:53.968Z,10.14
2023-03-22T01:02:40.112Z,10.14
2023-03-22T01:05:26.209Z,10.15
2023-03-22T01:08:12.951Z,10.20
2023-03-22T01:10:57.820Z,10.19
2023-03-22T01:13:42.920Z,10.21
2023-03-22T01:16:28.352Z,10.18
2023-03-22T01:19:13.684Z,10.17
2023-03-22T01:21:59.112Z,10.16
2023-03-22T01:24:44.406Z,10.12
2023-03-22T01:27:29.880Z,10.09
2023-03-22T01:30:15.488Z,10.16
2023-03-22T01:33:00.720Z,10.15
2023-03-22T01:35:45.771Z,10.14
2023-03-22T01:38:30.835Z,10.15
2023-03-22T01:41:17.228Z,10.18
2023-03-22T01:44:08.087Z,10.17
2023-03-22T01:46:53.349Z,10.11
2023-03-22T01:49:40.049Z,10.13
2023-03-22T01:52:25.804Z,10.15
2023-03-22T01:55:14.350Z,10.11
2023-03-22T01:58:00.969Z,10.13
2023-03-22T02:00:49.215Z,10.14
2023-03-22T02:04:08.646Z,10.11
2023-03-22T02:06:54.796Z,10.10
2023-03-22T02:09:41.431Z,10.04
2023-03-22T02:12:38.475Z,10.07
2023-03-22T02:15:51.808Z,10.07
2023-03-22T02:18:50.626Z,10.07
2023-03-22T02:22:03.000Z,10.06
2023-03-22T02:24:55.517Z,10.03
2023-03-22T02:28:08.539Z,10.06
2023-03-22T02:31:14.276Z,10.06
2023-03-22T02:34:21.472Z,10.05
2023-03-22T02:37:32.745Z,9.96
2023-03-22T02:40:32.068Z,9.98
2023-03-22T02:43:31.043Z,9.96
2023-03-22T02:46:44.614Z,9.91
2023-03-22T02:49:37.831Z,9.85
2023-03-22T02:52:51.098Z,9.89
2023-03-22T02:55:51.074Z,9.87
2023-03-22T02:58:45.753Z,9.82
2023-03-22T03:01:36.876Z,9.85
2023-03-22T03:04:28.506Z,9.84
2023-03-22T03:07:18.037Z,9.77
2023-03-22T03:10:04.680Z,9.84
2023-03-22T03:12:49.497Z,9.83
2023-03-22T03:15:35.827Z,9.82
2023-03-22T03:18:24.118Z,9.75
2023-03-22T03:21:36.071Z,9.78
2023-03-22T03:24:29.258Z,9.78
2023-03-22T03:27:32.251Z,9.75
2023-03-22T03:30:28.350Z,9.70
2023-03-22T03:33:18.253Z,9.70
2023-03-22T03:36:09.476Z,9.59
2023-03-22T03:38:56.412Z,9.59
2023-03-22T03:41:46.646Z,9.62
2023-03-22T03:44:35.914Z,9.59
2023-03-22T03:47:21.770Z,9.53
2023-03-22T03:50:08.407Z,9.56
2023-03-22T03:52:55.600Z,9.54
2023-03-22T03:55:40.925Z,9.54
2023-03-22T03:58:25.889Z,9.43
2023-03-22T04:01:11.208Z,9.48
2023-03-22T04:03:56.580Z,9.51
2023-03-22T04:06:42.752Z,9.49
2023-03-22T04:09:33.808Z,9.49
2023-03-22T04:12:18.765Z,9.48
2023-03-22T04:15:03.905Z,9.51
2023-03-22T04:17:49.178Z,9.50
2023-03-22T04:20:34.234Z,9.49
2023-03-22T04:23:22.490Z,9.44
2023-03-22T04:26:07.573Z,9.44
2023-03-22T04:28:52.767Z,9.44
2023-03-22T04:31:39.117Z,9.46
2023-03-22T04:34:24.434Z,9.44
2023-03-22T04:37:09.369Z,9.43
2023-03-22T04:39:54.467Z,9.46
2023-03-22T04:42:39.640Z,9.42
2023-03-22T04:45:29.358Z,9.44
2023-03-22T04:48:14.572Z,9.42
2023-03-22T04:51:04.224Z,9.41
2023-03-22T04:53:49.536Z,9.38
2023-03-22T04:56:34.889Z,9.38
2023-03-22T04:59:20.545Z,9.33
2023-03-22T05:02:06.070Z,9.34
2023-03-22T05:04:51.486Z,9.38
2023-03-22T05:07:36.672Z,9.37
2023-03-22T05:10:22.074Z,9.36
2023-03-22T05:13:06.948Z,9.33
2023-03-22T05:15:52.280Z,9.33
2023-03-22T05:18:42.372Z,9.30
2023-03-22T05:21:28.414Z,9.27
2023-03-22T05:24:13.891Z,9.32
2023-03-22T05:27:01.093Z,9.33
2023-03-22T05:29:46.786Z,9.33
2023-03-22T05:32:32.193Z,9.28
2023-03-22T05:35:17.544Z,9.32
2023-03-22T05:38:03.787Z,9.32
2023-03-22T05:40:49.093Z,9.32
2023-03-22T05:43:34.158Z,9.29
2023-03-22T05:46:19.350Z,9.26
2023-03-22T05:49:04.324Z,9.29
2023-03-22T05:51:56.160Z,9.33
2023-03-22T05:54:41.625Z,9.34
2023-03-22T05:57:27.274Z,9.35
2023-03-22T06:00:16.319Z,9.36
2023-03-22T06:03:03.935Z,9.37
2023-03-22T06:05:50.853Z,9.37
2023-03-22T06:08:37.946Z,9.34
2023-03-22T06:11:23.932Z,9.35
2023-03-22T06:14:09.309Z,9.32
2023-03-22T06:16:54.736Z,9.31
2023-03-22T06:19:39.841Z,9.33
2023-03-22T06:22:25.131Z,9.33
2023-03-22T06:25:11.496Z,9.31
2023-03-22T06:27:56.810Z,9.26
2023-03-22T06:30:42.101Z,9.26
2023-03-22T06:33:27.889Z,9.23
2023-03-22T06:36:13.059Z,9.33
2023-03-22T06:38:59.193Z,9.31
2023-03-22T06:41:44.496Z,9.34
2023-03-22T06:44:29.790Z,9.36
2023-03-22T06:47:15.394Z,9.37
2023-03-22T06:50:00.751Z,9.42
2023-03-22T06:52:51.237Z,9.44
2023-03-22T06:55:36.316Z,9.45
2023-03-22T06:58:21.663Z,9.45
2023-03-22T07:01:07.182Z,9.47
2023-03-22T07:03:52.608Z,9.48
2023-03-22T07:06:37.855Z,9.50
2023-03-22T07:09:24.849Z,9.54
2023-03-22T07:12:10.300Z,9.50
2023-03-22T07:14:55.639Z,9.58
2023-03-22T07:17:40.948Z,9.58
2023-03-22T07:20:26.127Z,9.63
2023-03-22T07:23:11.558Z,9.66
2023-03-22T07:25:56.667Z,9.69
2023-03-22T07:28:44.544Z,9.72
2023-03-22T07:31:31.548Z,9.76
2023-03-22T07:34:17.150Z,9.75
2023-03-22T07:37:03.402Z,9.80
2023-03-22T07:39:48.780Z,9.77
2023-03-22T07:42:34.650Z,9.82
2023-03-22T07:45:20.824Z,9.83
2023-03-22T07:48:06.472Z,9.78
2023-03-22T07:50:55.439Z,9.80
2023-03-22T07:53:40.577Z,9.87
2023-03-22T07:56:25.814Z,9.86
2023-03-22T07:59:11.189Z,9.81
2023-03-22T08:01:56.963Z,9.83
2023-03-22T08:04:42.246Z,9.86
2023-03-22T08:07:27.556Z,9.83
2023-03-22T08:10:12.759Z,9.86
2023-03-22T08:12:57.788Z,9.88
2023-03-22T08:15:43.359Z,9.90
2023-03-22T08:18:28.448Z,9.84
2023-03-22T08:21:13.559Z,9.91
2023-03-22T08:23:58.609Z,9.92
2023-03-22T08:26:45.707Z,9.93
2023-03-22T08:29:31.241Z,9.97
2023-03-22T08:32:16.882Z,9.89
2023-03-22T08:35:02.029Z,10.00
2023-03-22T08:37:47.169Z,10.03
2023-03-22T08:40:32.521Z,10.05
2023-03-22T08:43:17.610Z,10.05
2023-03-22T08:46:02.616Z,10.09
2023-03-22T08:48:51.775Z,10.04
2023-03-22T08:51:37.054Z,10.08
2023-03-22T08:54:22.935Z,10.05
2023-03-22T08:57:09.561Z,10.09
2023-03-22T08:59:56.712Z,10.09
2023-03-22T09:02:41.958Z,10.15
2023-03-22T09:05:27.099Z,10.19
2023-03-22T09:08:20.074Z,10.25
2023-03-22T09:11:08.558Z,10.28
2023-03-22T09:13:53.800Z,10.35
2023-03-22T09:16:39.089Z,10.41
2023-03-22T09:19:24.723Z,10.38
2023-03-22T09:22:09.953Z,10.42
2023-03-22T09:24:54.884Z,10.43
2023-03-22T09:27:40.913Z,10.46
2023-03-22T09:30:26.307Z,10.45
2023-03-22T09:33:11.432Z,10.60
2023-03-22T09:35:57.148Z,10.57
2023-03-22T09:38:42.649Z,10.49
2023-03-22T09:41:33.904Z,10.52
2023-03-22T09:44:28.726Z,10.47
2023-03-22T09:47:18.743Z,10.50
2023-03-22T09:50:24.838Z,10.50
2023-03-22T09:53:14.296Z,10.54
2023-03-22T09:56:07.599Z,10.52
2023-03-22T09:58:55.320Z,10.52
2023-03-22T10:01:52.869Z,10.49
2023-03-22T10:04:51.236Z,10.55
2023-03-22T10:07:56.146Z,10.57
2023-03-22T10:10:43.131Z,10.75
2023-03-22T10:13:31.362Z,10.81
2023-03-22T10:16:32.089Z,10.84
2023-03-22T10:19:28.073Z,10.82
2023-03-22T10:22:18.506Z,10.86
2023-03-22T10:25:06.702Z,10.83
2023-03-22T10:27:52.630Z,10.86
2023-03-22T10:30:40.149Z,10.88
2023-03-22T10:33:37.562Z,10.89
2023-03-22T10:36:27.101Z,11.00
2023-03-22T10:39:19.684Z,10.96
2023-03-22T10:42:13.475Z,10.87
2023-03-22T10:45:08.465Z,10.88
2023-03-22T10:48:00.941Z,10.86
2023-03-22T10:50:46.300Z,10.89
2023-03-22T10:53:45.674Z,10.90
2023-03-22T10:56:30.654Z,10.90
2023-03-22T10:59:43.899Z,10.85
2023-03-22T11:02:31.823Z,10.86
2023-03-22T11:05:24.180Z,10.92
2023-03-22T11:08:14.584Z,10.94
2023-03-22T11:11:00.448Z,10.98
2023-03-22T11:14:05.075Z,10.98
2023-03-22T11:16:58.137Z,11.00
2023-03-22T11:19:57.799Z,10.93
2023-03-22T11:22:45.754Z,10.98
2023-03-22T11:25:34.626Z,11.10
2023-03-22T11:28:41.863Z,11.14
2023-03-22T11:31:27.759Z,11.18
2023-03-22T11:34:19.356Z,11.23
2023-03-22T11:37:08.309Z,11.30
2023-03-22T11:39:59.730Z,11.28
2023-03-22T11:42:46.575Z,11.22
2023-03-22T11:45:36.034Z,11.17
2023-03-22T11:48:24.644Z,11.21
2023-03-22T11:51:33.410Z,11.18
2023-03-22T11:54:24.488Z,11.13
2023-03-22T11:57:20.429Z,11.11
2023-03-22T12:00:27.813Z,11.20
2023-03-22T12:03:21.943Z,11.22
2023-03-22T12:06:33.613Z,11.32
2023-03-22T12:09:25.849Z,11.45
2023-03-22T12:12:19.245Z,11.51
2023-03-22T12:15:10.966Z,11.52
2023-03-22T12:18:16.518Z,11.58
2023-03-22T12:21:02.734Z,11.61
2023-03-22T12:23:47.878Z,11.72
2023-03-22T12:26:35.165Z,11.83
2023-03-22T12:29:21.633Z,11.85
2023-03-22T12:32:15.814Z,11.67
2023-03-22T12:35:18.062Z,11.85
2023-03-22T12:38:23.015Z,12.05
2023-03-22T12:41:15.909Z,12.08
2023-03-22T12:44:05.886Z,12.00
2023-03-22T12:47:12.667Z,11.95
2023-03-22T12:50:05.438Z,11.85
2023-03-22T12:52:56.649Z,11.82
2023-03-22T12:55:44.614Z,11.71
2023-03-22T12:58:30.350Z,11.78
2023-03-22T13:01:30.593Z,11.77
2023-03-22T13:04:31.712Z,11.75
2023-03-22T13:07:31.878Z,11.70
2023-03-22T13:10:29.282Z,11.75
2023-03-22T13:13:17.238Z,11.75
2023-03-22T13:16:11.582Z,11.69
2023-03-22T13:18:58.871Z,11.75
2023-03-22T13:21:45.593Z,11.81
2023-03-22T13:24:32.562Z,11.76
2023-03-22T13:27:17.840Z,11.80
2023-03-22T13:30:07.814Z,11.79
2023-03-22T13:33:10.105Z,11.78
2023-03-22T13:36:04.786Z,11.73
2023-03-22T13:38:58.554Z,11.69
2023-03-22T13:41:48.999Z,11.69
2023-03-22T13:44:40.056Z,11.76
2023-03-22T13:47:42.782Z,11.80
2023-03-22T13:50:30.092Z,11.85
2023-03-22T13:53:28.547Z,12.17
2023-03-22T13:56:14.401Z,12.36
2023-03-22T13:58:59.864Z,12.34
2023-03-22T14:01:59.540Z,12.19
2023-03-22T14:04:49.094Z,12.22
2023-03-22T14:07:44.308Z,12.35
2023-03-22T14:10:46.180Z,12.34
2023-03-22T14:13:44.366Z,12.32
2023-03-22T14:16:43.652Z,12.43
2023-03-22T14:19:32.736Z,12.45
